Terminal Aerodrome Forecast
Issued by NWS Charleston, WV

Current Version | Previous Version | Graphics & Text | Print | Product List | Glossary On
Versions: 1 2 3 4 5 6 7 8 9 10 11 12 13 14 15 16 17 18 19 20 21 22
000
FTUS41 KRLX 150800 AAA
TAFBKW
TAF AMD
KBKW 150855Z 1509/1606 09006KT P6SM VCSH OVC025
     FM151600 11009G14KT 6SM -SHRA BR OVC025
     FM152300 12009KT P6SM OVC035=

USA.gov is the U.S. government's official web portal to all federal, state and local government web resources and services.